Bindy — FGD5860 — position and weather

sailwx.info

Track history (hours):
 
Tides and Currents Weather Stations Pressure Air Temp Water Temp Dewpoint Dewpoint Depression Visibility Wind Speed Wind Dir Waves Ship Positions

Bindy

Last reported at 2017-Sep-26 02:00 UTC. Time now 2017-Sep-26 02:04 UTC.
Position N 48°23' W 004°30'.

Length 36 m; draft 2 m.

Type: Passenger vessel. MMSI: 227574030.

Date/timePositionNaut miles runAvg speedWind from/ knotsBaromVisibWave heightAir tempDewpointWater temp
2017-Sep-26 02:00N 48°23' W 004°30'0 0.0
2017-Sep-26 01:30N 48°23' W 004°30'0 0.0
2017-Sep-26 01:00N 48°23' W 004°30'0 0.0
2017-Sep-26 00:30N 48°23' W 004°30'0 0.0
2017-Sep-26 00:00N 48°23' W 004°30'0 0.0
2017-Sep-25 23:30N 48°23' W 004°30'0 0.0
2017-Sep-25 23:00N 48°23' W 004°30'0 0.0
2017-Sep-25 22:30N 48°23' W 004°30'0 0.0
2017-Sep-25 22:00N 48°23' W 004°30'0 0.0
2017-Sep-25 21:30N 48°23' W 004°30'0 0.0
2017-Sep-25 21:00N 48°23' W 004°30'0 0.0
2017-Sep-25 20:30N 48°23' W 004°30'0 0.0
2017-Sep-25 20:00N 48°23' W 004°30'0 0.0
2017-Sep-25 19:30N 48°23' W 004°30'0 0.0
2017-Sep-25 19:00N 48°23' W 004°30'0 0.0
2017-Sep-25 18:30N 48°23' W 004°30'0 0.0
2017-Sep-25 18:00N 48°23' W 004°30'0 0.0
2017-Sep-25 17:30N 48°23' W 004°30'0 0.0
2017-Sep-25 17:00N 48°23' W 004°30'0 0.0
2017-Sep-25 16:30N 48°23' W 004°30'0 0.0
2017-Sep-25 16:00N 48°23' W 004°30'0 0.0
2017-Sep-25 15:30N 48°23' W 004°30'5 9.3
2017-Sep-25 15:00N 48°19' W 004°27'0 0.3
2017-Sep-25 14:31N 48°19' W 004°27'5 9.0
2017-Sep-25 14:00N 48°23' W 004°30'0 0.0
2017-Sep-25 08:07N 48°23' W 004°30'0 0.0
2017-Sep-25 08:00N 48°23' W 004°30'0 0.0
2017-Sep-25 07:30N 48°23' W 004°30'0 0.0
2017-Sep-25 07:00N 48°23' W 004°30'0 0.0
2017-Sep-25 06:30N 48°23' W 004°30'510.7
2017-Sep-25 06:01N 48°18' W 004°26'2 4.4
2017-Sep-25 05:30N 48°20' W 004°28'3 6.5
2017-Sep-25 05:00N 48°23' W 004°30'0 0.0
2017-Sep-25 04:30N 48°23' W 004°30'0 0.0
2017-Sep-25 04:00N 48°23' W 004°30'0 0.0
2017-Sep-25 03:30N 48°23' W 004°30'0 0.0
2017-Sep-25 03:00N 48°23' W 004°30'0 0.0
2017-Sep-25 02:31N 48°23' W 004°30'0 0.0
2017-Sep-25 02:00N 48°23' W 004°30'0 0.0
2017-Sep-25 01:31N 48°23' W 004°30'0 0.0
2017-Sep-25 01:00N 48°23' W 004°30'0 0.0
2017-Sep-25 00:30N 48°23' W 004°30'0 0.0
2017-Sep-25 00:00N 48°23' W 004°30'0 0.0
2017-Sep-24 23:31N 48°23' W 004°30'0 0.0
2017-Sep-24 23:00N 48°23' W 004°30'0 0.0
2017-Sep-24 22:30N 48°23' W 004°30'0 0.0
2017-Sep-24 22:00N 48°23' W 004°30'0 0.0
2017-Sep-24 21:30N 48°23' W 004°30'0 0.0
2017-Sep-24 21:00N 48°23' W 004°30'0 0.0
2017-Sep-24 20:30N 48°23' W 004°30'0 0.0
2017-Sep-24 20:00N 48°23' W 004°30'0 0.0
2017-Sep-24 19:30N 48°23' W 004°30'0 0.0
2017-Sep-24 19:00N 48°23' W 004°30'0 0.0
2017-Sep-24 18:30N 48°23' W 004°30'0 0.0
2017-Sep-24 18:00N 48°23' W 004°30'0 0.0
2017-Sep-24 17:30N 48°23' W 004°30'0 0.0
2017-Sep-24 17:00N 48°23' W 004°30'0 0.0
2017-Sep-24 16:30N 48°23' W 004°30'0 0.0
2017-Sep-24 16:00N 48°23' W 004°30'0 0.0
2017-Sep-24 15:30N 48°23' W 004°30'0 0.0
2017-Sep-24 15:00N 48°23' W 004°30'0 0.0
2017-Sep-24 14:30N 48°23' W 004°30'0 0.0
2017-Sep-24 14:00N 48°23' W 004°30'0 0.0
2017-Sep-24 13:30N 48°23' W 004°30'0 0.0
2017-Sep-24 13:01N 48°23' W 004°30'0 0.0
2017-Sep-24 12:30N 48°23' W 004°30'0 0.0
2017-Sep-24 12:00N 48°23' W 004°30'0 0.0
2017-Sep-24 11:30N 48°23' W 004°30'0 0.0
2017-Sep-24 11:00N 48°23' W 004°30'0 0.0
2017-Sep-24 10:30N 48°23' W 004°30'0 0.0
2017-Sep-24 10:00N 48°23' W 004°30'0 0.0
2017-Sep-24 09:30N 48°23' W 004°30'0 0.0
2017-Sep-24 09:00N 48°23' W 004°30'0 0.0
2017-Sep-24 08:31N 48°23' W 004°30'0 0.0
2017-Sep-24 08:00N 48°23' W 004°30'0 0.0
2017-Sep-24 07:30N 48°23' W 004°30'0 0.0
2017-Sep-24 07:00N 48°23' W 004°30'0 0.0
2017-Sep-24 06:30N 48°23' W 004°30'0 0.0
2017-Sep-24 06:00N 48°23' W 004°30'0 0.0
2017-Sep-24 05:30N 48°23' W 004°30'0 0.0
2017-Sep-24 05:00N 48°23' W 004°30'0 0.0
2017-Sep-24 04:30N 48°23' W 004°30'0 0.0
2017-Sep-24 04:01N 48°23' W 004°30'0 0.0
2017-Sep-24 03:30N 48°23' W 004°30'0 0.0
2017-Sep-24 03:00N 48°23' W 004°30'0 0.0
2017-Sep-24 02:30N 48°23' W 004°30'0 0.0
2017-Sep-24 02:00N 48°23' W 004°30'0 0.0
2017-Sep-24 01:30N 48°23' W 004°30'0 0.0
2017-Sep-24 01:00N 48°23' W 004°30'0 0.0
2017-Sep-24 00:30N 48°23' W 004°30'0 0.0
2017-Sep-24 00:01N 48°23' W 004°30'0 0.0
2017-Sep-23 23:30N 48°23' W 004°30'0 0.0
2017-Sep-23 23:00N 48°23' W 004°30'0 0.0
2017-Sep-23 22:30N 48°23' W 004°30'0 0.0
2017-Sep-23 22:00N 48°23' W 004°30'0 0.0
2017-Sep-23 21:30N 48°23' W 004°30'0 0.0
2017-Sep-23 21:01N 48°23' W 004°30'0 0.0
2017-Sep-23 20:30N 48°23' W 004°30'0 0.0
2017-Sep-23 20:00N 48°23' W 004°30'0 0.0
2017-Sep-22 02:00N 48°23' W 004°30'0 0.0
2017-Sep-22 01:30N 48°23' W 004°30'0 0.0
2017-Sep-22 01:00N 48°23' W 004°30'0 0.0
2017-Sep-22 00:30N 48°23' W 004°30'0 0.0
2017-Sep-22 00:00N 48°23' W 004°30'0 0.0
2017-Sep-21 23:30N 48°23' W 004°30'0 0.0
2017-Sep-21 23:00N 48°23' W 004°30'0 0.0
2017-Sep-21 22:30N 48°23' W 004°30'0 0.0
2017-Sep-21 22:00N 48°23' W 004°30'0 0.0
2017-Sep-21 21:30N 48°23' W 004°30'0 0.0
2017-Sep-21 21:00N 48°23' W 004°30'0 0.0
2017-Sep-21 20:30N 48°23' W 004°30'0 0.0
2017-Sep-21 20:00N 48°23' W 004°30'0 0.0
2017-Sep-21 19:30N 48°23' W 004°30'0 0.0
2017-Sep-21 19:00N 48°23' W 004°30'0 0.0
2017-Sep-21 18:30N 48°23' W 004°30'0 0.0
2017-Sep-21 18:00N 48°23' W 004°30'0 0.0
2017-Sep-21 17:30N 48°23' W 004°30'1 1.5
2017-Sep-21 17:00N 48°22' W 004°29'4 8.6
2017-Sep-21 16:30N 48°18' W 004°29'1 2.6
2017-Sep-21 16:00N 48°19' W 004°28'4 8.4
2017-Sep-21 15:31N 48°23' W 004°30'0 0.6
2017-Sep-21 15:01N 48°23' W 004°30'5 9.9
2017-Sep-21 14:30N 48°18' W 004°31'4 9.0
2017-Sep-21 14:01N 48°22' W 004°29'1 0.1
2017-Sep-21 07:26N 48°23' W 004°30'0 0.0
2017-Sep-21 07:00N 48°23' W 004°30'0 0.3
2017-Sep-21 06:30N 48°23' W 004°30'510.2
2017-Sep-21 06:00N 48°18' W 004°31'510.1
2017-Sep-21 05:31N 48°23' W 004°30'0 0.5
2017-Sep-21 05:00N 48°23' W 004°30'0 0.0
2017-Sep-21 04:31N 48°23' W 004°30'0 0.0
2017-Sep-21 04:00N 48°23' W 004°30'0 0.0
2017-Sep-21 03:30N 48°23' W 004°30'0 0.0
2017-Sep-21 03:00N 48°23' W 004°30'0 0.0
2017-Sep-21 02:30N 48°23' W 004°30'0 0.0
2017-Sep-21 02:00N 48°23' W 004°30'0 0.0
2017-Sep-21 01:30N 48°23' W 004°30'0 0.0
2017-Sep-21 01:00N 48°23' W 004°30'0 0.0
2017-Sep-21 00:30N 48°23' W 004°30'0 0.0
2017-Sep-21 00:00N 48°23' W 004°30'0 0.0
2017-Sep-20 23:31N 48°23' W 004°30'0 0.0
2017-Sep-20 23:00N 48°23' W 004°30'0 0.0
2017-Sep-20 22:30N 48°23' W 004°30'0 0.0
2017-Sep-20 22:00N 48°23' W 004°30'0 0.0
2017-Sep-20 21:30N 48°23' W 004°30'0 0.0
2017-Sep-20 21:00N 48°23' W 004°30'0 0.0
2017-Sep-20 20:30N 48°23' W 004°30'0 0.0
2017-Sep-20 20:00N 48°23' W 004°30'0 0.0
2017-Sep-20 19:30N 48°23' W 004°30'0 0.0
2017-Sep-20 19:00N 48°23' W 004°30'0 0.0
2017-Sep-20 18:30N 48°23' W 004°30'0 0.0
2017-Sep-20 18:00N 48°23' W 004°30'0 0.0
2017-Sep-20 17:30N 48°23' W 004°30'2 3.3
2017-Sep-20 17:00N 48°21' W 004°29'4 7.0
2017-Sep-20 16:30N 48°18' W 004°29'2 3.2
2017-Sep-20 16:01N 48°19' W 004°27'4 8.7
2017-Sep-20 15:30N 48°23' W 004°30'0 0.0
2017-Sep-20 15:00N 48°23' W 004°30'1 0.7
2017-Sep-20 14:00N 48°22' W 004°29'1 1.5
2017-Sep-20 13:30N 48°23' W 004°30'0 0.0
2017-Sep-20 13:00N 48°23' W 004°30'0 0.0
2017-Sep-20 12:30N 48°23' W 004°30'0 0.0
2017-Sep-20 12:00N 48°23' W 004°30'0 0.0
2017-Sep-20 11:30N 48°23' W 004°30'0 0.0
2017-Sep-20 11:00N 48°23' W 004°30'0 0.0
2017-Sep-20 10:30N 48°23' W 004°30'0 0.0
2017-Sep-20 10:00N 48°23' W 004°30'0 0.0
2017-Sep-20 09:30N 48°23' W 004°30'0 0.0
2017-Sep-20 09:00N 48°23' W 004°30'0 0.0
2017-Sep-20 08:30N 48°23' W 004°30'0 0.0
2017-Sep-20 08:00N 48°23' W 004°30'1 1.8
2017-Sep-20 07:31N 48°22' W 004°30'0 0.0
2017-Sep-20 07:00N 48°22' W 004°30'0 0.8
2017-Sep-20 06:30N 48°22' W 004°29'4 8.5
2017-Sep-20 06:00N 48°18' W 004°31'510.1
2017-Sep-20 05:30N 48°23' W 004°30'0 0.5
2017-Sep-20 05:00N 48°23' W 004°30'0 0.0
2017-Sep-20 04:30N 48°23' W 004°30'0 0.0
2017-Sep-20 04:01N 48°23' W 004°30'0 0.0
2017-Sep-20 03:30N 48°23' W 004°30'0 0.0
2017-Sep-20 03:00N 48°23' W 004°30'0 0.0
2017-Sep-20 02:30N 48°23' W 004°30'0 0.0
2017-Sep-20 02:00N 48°23' W 004°30'0 0.0
2017-Sep-20 01:30N 48°23' W 004°30'0 0.0
2017-Sep-20 01:01N 48°23' W 004°30'0 0.0
2017-Sep-20 00:30N 48°23' W 004°30'0 0.0
2017-Sep-20 00:00N 48°23' W 004°30'0 0.0
2017-Sep-19 23:30N 48°23' W 004°30'0 0.0
2017-Sep-19 23:00N 48°23' W 004°30'0 0.0
2017-Sep-19 22:30N 48°23' W 004°30'0 0.0
2017-Sep-19 22:00N 48°23' W 004°30'0 0.0
2017-Sep-19 21:30N 48°23' W 004°30'0 0.0
2017-Sep-19 21:01N 48°23' W 004°30'0 0.0
2017-Sep-19 20:30N 48°23' W 004°30'0 0.0
2017-Sep-19 20:00N 48°23' W 004°30'0 0.0
2017-Sep-19 19:30N 48°23' W 004°30'0 0.0
2017-Sep-19 19:00N 48°23' W 004°30'0 0.0
2017-Sep-19 18:30N 48°23' W 004°30'0 0.0
2017-Sep-19 18:01N 48°23' W 004°30'0 0.0
2017-Sep-19 17:30N 48°23' W 004°30'3 5.8
2017-Sep-19 17:01N 48°20' W 004°29'4 8.2
2017-Sep-19 16:30N 48°17' W 004°25'4 7.9
2017-Sep-19 16:01N 48°21' W 004°28'3 5.3
2017-Sep-19 15:31N 48°23' W 004°30'0 0.1
2017-Sep-19 15:00N 48°23' W 004°30'510.5
2017-Sep-19 14:30N 48°18' W 004°31'5 9.6
2017-Sep-19 14:01N 48°23' W 004°30'1 1.0
2017-Sep-19 13:30N 48°23' W 004°30'0 0.0
2017-Sep-19 13:00N 48°23' W 004°30'0 0.0
2017-Sep-19 12:30N 48°23' W 004°30'0 0.0
2017-Sep-19 12:00N 48°23' W 004°30'0 0.0
2017-Sep-19 11:30N 48°23' W 004°30'0 0.0
2017-Sep-19 11:00N 48°23' W 004°30'0 0.0
2017-Sep-19 10:30N 48°23' W 004°30'0 0.0
2017-Sep-19 10:01N 48°23' W 004°30'0 0.0
2017-Sep-19 09:30N 48°23' W 004°30'0 0.0
2017-Sep-19 09:00N 48°23' W 004°30'0 0.8
2017-Sep-19 08:31N 48°23' W 004°30'1 1.7
2017-Sep-19 08:01N 48°22' W 004°31'0 0.0
2017-Sep-19 07:31N 48°22' W 004°31'0 0.0
2017-Sep-19 07:01N 48°22' W 004°31'1 1.9
2017-Sep-19 06:31N 48°22' W 004°29'4 8.7
2017-Sep-19 06:01N 48°18' W 004°31'510.0
2017-Sep-19 05:30N 48°23' W 004°30'0 0.6
2017-Sep-19 05:00N 48°23' W 004°30'0 0.0
2017-Sep-19 04:31N 48°23' W 004°30'0 0.0
2017-Sep-19 04:00N 48°23' W 004°30'0 0.0
2017-Sep-19 03:30N 48°23' W 004°30'0 0.0
2017-Sep-19 03:01N 48°23' W 004°30'0 0.0
2017-Sep-19 02:31N 48°23' W 004°30'0 0.0
2017-Sep-19 02:01N 48°23' W 004°30'0 0.0
2017-Sep-19 01:31N 48°23' W 004°30'0 0.0
2017-Sep-19 01:00N 48°23' W 004°30'0 0.0
2017-Sep-19 00:31N 48°23' W 004°30'0 0.0
2017-Sep-19 00:01N 48°23' W 004°30'0 0.0
2017-Sep-18 23:31N 48°23' W 004°30'0 0.0
2017-Sep-18 23:00N 48°23' W 004°30'0 0.0
2017-Sep-18 22:30N 48°23' W 004°30'0 0.0
2017-Sep-18 22:01N 48°23' W 004°30'0 0.0
2017-Sep-18 21:30N 48°23' W 004°30'0 0.0
2017-Sep-18 21:01N 48°23' W 004°30'0 0.0
2017-Sep-18 20:31N 48°23' W 004°30'0 0.0
2017-Sep-18 20:01N 48°23' W 004°30'0 0.0
2017-Sep-18 19:30N 48°23' W 004°30'0 0.0
2017-Sep-18 19:00N 48°23' W 004°30'0 0.0
2017-Sep-18 18:31N 48°23' W 004°30'0 0.0
2017-Sep-18 18:01N 48°23' W 004°30'0 0.0
2017-Sep-18 17:31N 48°23' W 004°30'0 0.5
2017-Sep-18 17:01N 48°23' W 004°30'5 9.9
2017-Sep-18 16:30N 48°18' W 004°30'2 4.0
2017-Sep-18 16:01N 48°19' W 004°27'4 8.7
2017-Sep-18 15:30N 48°23' W 004°30'0 0.4
2017-Sep-18 15:00N 48°23' W 004°30'510.1
2017-Sep-18 14:30N 48°18' W 004°31'5 9.1
2017-Sep-18 14:01N 48°22' W 004°29'1 1.5
2017-Sep-18 13:31N 48°23' W 004°30'0 0.0
2017-Sep-18 13:00N 48°23' W 004°30'0 0.0
2017-Sep-18 12:31N 48°23' W 004°30'0 0.0
2017-Sep-18 12:00N 48°23' W 004°30'0 0.0
2017-Sep-18 11:30N 48°23' W 004°30'0 0.0
2017-Sep-18 11:00N 48°23' W 004°30'0 0.0
2017-Sep-18 10:31N 48°23' W 004°30'0 0.0
2017-Sep-18 10:01N 48°23' W 004°30'0 0.0
2017-Sep-18 09:31N 48°23' W 004°30'0 0.0
2017-Sep-18 09:01N 48°23' W 004°30'0 0.0
2017-Sep-18 08:30N 48°23' W 004°30'0 0.0
2017-Sep-18 08:01N 48°23' W 004°30'0 0.0
2017-Sep-18 07:31N 48°23' W 004°30'0 0.0
2017-Sep-18 07:00N 48°23' W 004°30'0 0.0
2017-Sep-18 06:30N 48°23' W 004°30'510.6
2017-Sep-18 06:00N 48°18' W 004°31'510.1
2017-Sep-18 05:31N 48°23' W 004°30'0 0.5
2017-Sep-18 05:00N 48°23' W 004°30'0 0.0
2017-Sep-18 04:30N 48°23' W 004°30'0 0.0
2017-Sep-18 04:00N 48°23' W 004°30'0 0.0
2017-Sep-18 03:31N 48°23' W 004°30'0 0.0
2017-Sep-18 03:01N 48°23' W 004°30'0 0.0
2017-Sep-18 02:31N 48°23' W 004°30'0 0.0
2017-Sep-18 02:00N 48°23' W 004°30'0 0.0
2017-Sep-18 01:31N 48°23' W 004°30'0 0.0
2017-Sep-18 01:01N 48°23' W 004°30'0 0.0
2017-Sep-18 00:31N 48°23' W 004°30'0 0.0
2017-Sep-18 00:01N 48°23' W 004°30'0 0.0
2017-Sep-17 23:31N 48°23' W 004°30'0 0.0
2017-Sep-17 23:00N 48°23' W 004°30'0 0.0
2017-Sep-17 22:30N 48°23' W 004°30'0 0.0
2017-Sep-17 22:01N 48°23' W 004°30'0 0.0
2017-Sep-17 21:30N 48°23' W 004°30'0 0.0
2017-Sep-17 21:00N 48°23' W 004°30'0 0.0
2017-Sep-17 20:31N 48°23' W 004°30'0 0.0
2017-Sep-17 20:00N 48°23' W 004°30'0 0.0
2017-Sep-17 19:30N 48°23' W 004°30'0 0.0
2017-Sep-17 19:00N 48°23' W 004°30'0 0.0
2017-Sep-17 18:30N 48°23' W 004°30'0 0.0
2017-Sep-17 18:00N 48°23' W 004°30'0 0.0
2017-Sep-17 17:30N 48°23' W 004°30'0 0.0
2017-Sep-17 17:00N 48°23' W 004°30'0 0.0
2017-Sep-17 16:31N 48°23' W 004°30'0 0.0
2017-Sep-17 16:00N 48°23' W 004°30'0 0.0
2017-Sep-17 15:30N 48°23' W 004°30'0 0.0
2017-Sep-17 15:01N 48°23' W 004°30'0 0.0
2017-Sep-17 14:30N 48°23' W 004°30'0 0.0
2017-Sep-17 14:00N 48°23' W 004°30'0 0.0
2017-Sep-17 13:30N 48°23' W 004°30'0 0.0
2017-Sep-17 13:01N 48°23' W 004°30'0 0.0
2017-Sep-17 12:30N 48°23' W 004°30'0 0.0
2017-Sep-17 12:00N 48°23' W 004°30'0 0.0
2017-Sep-17 11:30N 48°23' W 004°30'0 0.0
2017-Sep-17 11:00N 48°23' W 004°30'0 0.0
2017-Sep-17 10:30N 48°23' W 004°30'0 0.0
2017-Sep-17 10:00N 48°23' W 004°30'0 0.0
2017-Sep-17 09:30N 48°23' W 004°30'0 0.0
2017-Sep-17 09:01N 48°23' W 004°30'0 0.0
2017-Sep-17 08:31N 48°23' W 004°30'0 0.0
2017-Sep-17 08:01N 48°23' W 004°30'0 0.5
2017-Sep-17 07:31N 48°23' W 004°30'5 9.7
2017-Sep-17 07:01N 48°18' W 004°29'3 6.2
2017-Sep-17 06:31N 48°17' W 004°25'1 2.8
2017-Sep-17 06:00N 48°18' W 004°26'3 5.9
2017-Sep-17 05:31N 48°20' W 004°29'3 5.3
2017-Sep-17 05:00N 48°23' W 004°30'0 0.0
2017-Sep-17 04:30N 48°23' W 004°30'0 0.0
2017-Sep-17 04:00N 48°23' W 004°30'0 0.0
2017-Sep-17 03:30N 48°23' W 004°30'0 0.0
2017-Sep-17 03:01N 48°23' W 004°30'0 0.0
2017-Sep-17 02:30N 48°23' W 004°30'0 0.0
2017-Sep-17 02:01N 48°23' W 004°30'0 0.0
2017-Sep-17 01:30N 48°23' W 004°30'0 0.0
2017-Sep-17 01:00N 48°23' W 004°30'0 0.0
2017-Sep-17 00:30N 48°23' W 004°30'0 0.0
2017-Sep-17 00:00N 48°23' W 004°30'0 0.0
2017-Sep-16 23:31N 48°23' W 004°30'0 0.0
2017-Sep-16 23:01N 48°23' W 004°30'0 0.0
2017-Sep-16 22:31N 48°23' W 004°30'0 0.0
2017-Sep-16 22:00N 48°23' W 004°30'0 0.0
2017-Sep-16 21:30N 48°23' W 004°30'0 0.0
2017-Sep-16 21:00N 48°23' W 004°30'0 0.0
2017-Sep-16 20:30N 48°23' W 004°30'0 0.0
2017-Sep-16 20:00N 48°23' W 004°30'0 0.0
2017-Sep-16 19:30N 48°23' W 004°30'0 0.0
2017-Sep-16 19:00N 48°23' W 004°30'0 0.0
2017-Sep-16 18:30N 48°23' W 004°30'0 0.0
2017-Sep-16 18:00N 48°23' W 004°30'0 0.0
2017-Sep-16 17:31N 48°23' W 004°30'0 0.0
2017-Sep-16 17:00N 48°23' W 004°30'0 0.0
2017-Sep-16 16:30N 48°23' W 004°30'0 0.0
2017-Sep-16 16:00N 48°23' W 004°30'0 0.0
2017-Sep-16 15:30N 48°23' W 004°30'0 0.0
2017-Sep-16 15:01N 48°23' W 004°30'0 0.0
2017-Sep-16 14:31N 48°23' W 004°30'0 0.0
2017-Sep-16 14:00N 48°23' W 004°30'0 0.0
2017-Sep-16 13:30N 48°23' W 004°30'0 0.0
2017-Sep-16 13:00N 48°23' W 004°30'0 0.0
2017-Sep-16 12:30N 48°23' W 004°30'0 0.0
2017-Sep-16 12:00N 48°23' W 004°30'0 0.0
2017-Sep-16 11:30N 48°23' W 004°30'0 0.0
2017-Sep-16 11:00N 48°23' W 004°30'0 0.0
2017-Sep-16 10:30N 48°23' W 004°30'0 0.0
2017-Sep-16 10:00N 48°23' W 004°30'0 0.0
2017-Sep-16 09:31N 48°23' W 004°30'0 0.0
2017-Sep-16 09:01N 48°23' W 004°30'0 0.0
2017-Sep-16 08:30N 48°23' W 004°30'0 0.0
2017-Sep-16 08:00N 48°23' W 004°30'0 0.8
2017-Sep-16 07:30N 48°23' W 004°30'5 9.4
2017-Sep-16 07:01N 48°18' W 004°29'3 6.2
2017-Sep-16 06:30N 48°17' W 004°25'2 3.1
2017-Sep-16 06:01N 48°18' W 004°27'3 6.6
2017-Sep-16 05:30N 48°21' W 004°29'2 4.3
2017-Sep-16 05:01N 48°23' W 004°30'0 0.0
2017-Sep-16 04:31N 48°23' W 004°30'0 0.0
2017-Sep-16 04:00N 48°23' W 004°30'0 0.0
2017-Sep-16 03:30N 48°23' W 004°30'0 0.0
2017-Sep-16 03:00N 48°23' W 004°30'0 0.0
2017-Sep-16 02:30N 48°23' W 004°30'0 0.0
2017-Sep-16 02:01N 48°23' W 004°30'  
Track history (hours):
 
Tides and Currents Weather Stations Pressure Air Temp Water Temp Dewpoint Dewpoint Depression Visibility Wind Speed Wind Dir Waves Ship Positions

Bindy

Last reported at 2017-Sep-26 02:00 UTC. Time now 2017-Sep-26 02:04 UTC.
Position N 48°23' W 004°30'.

Length 36 m; draft 2 m.

Type: Passenger vessel. MMSI: 227574030.

Date/timePositionNaut miles runAvg speedWind from/ knotsBaromVisibWave heightAir tempDewpointWater temp
2017-Sep-26 02:00N 48°23' W 004°30'0 0.0
2017-Sep-26 01:30N 48°23' W 004°30'0 0.0
2017-Sep-26 01:00N 48°23' W 004°30'0 0.0
2017-Sep-26 00:30N 48°23' W 004°30'0 0.0
2017-Sep-26 00:00N 48°23' W 004°30'0 0.0
2017-Sep-25 23:30N 48°23' W 004°30'0 0.0
2017-Sep-25 23:00N 48°23' W 004°30'0 0.0
2017-Sep-25 22:30N 48°23' W 004°30'0 0.0
2017-Sep-25 22:00N 48°23' W 004°30'0 0.0
2017-Sep-25 21:30N 48°23' W 004°30'0 0.0
2017-Sep-25 21:00N 48°23' W 004°30'0 0.0
2017-Sep-25 20:30N 48°23' W 004°30'0 0.0
2017-Sep-25 20:00N 48°23' W 004°30'0 0.0
2017-Sep-25 19:30N 48°23' W 004°30'0 0.0
2017-Sep-25 19:00N 48°23' W 004°30'0 0.0
2017-Sep-25 18:30N 48°23' W 004°30'0 0.0
2017-Sep-25 18:00N 48°23' W 004°30'0 0.0
2017-Sep-25 17:30N 48°23' W 004°30'0 0.0
2017-Sep-25 17:00N 48°23' W 004°30'0 0.0
2017-Sep-25 16:30N 48°23' W 004°30'0 0.0
2017-Sep-25 16:00N 48°23' W 004°30'0 0.0
2017-Sep-25 15:30N 48°23' W 004°30'5 9.3
2017-Sep-25 15:00N 48°19' W 004°27'0 0.3
2017-Sep-25 14:31N 48°19' W 004°27'5 9.0
2017-Sep-25 14:00N 48°23' W 004°30'0 0.0
2017-Sep-25 08:07N 48°23' W 004°30'0 0.0
2017-Sep-25 08:00N 48°23' W 004°30'0 0.0
2017-Sep-25 07:30N 48°23' W 004°30'0 0.0
2017-Sep-25 07:00N 48°23' W 004°30'0 0.0
2017-Sep-25 06:30N 48°23' W 004°30'510.7
2017-Sep-25 06:01N 48°18' W 004°26'2 4.4
2017-Sep-25 05:30N 48°20' W 004°28'3 6.5
2017-Sep-25 05:00N 48°23' W 004°30'0 0.0
2017-Sep-25 04:30N 48°23' W 004°30'0 0.0
2017-Sep-25 04:00N 48°23' W 004°30'0 0.0
2017-Sep-25 03:30N 48°23' W 004°30'0 0.0
2017-Sep-25 03:00N 48°23' W 004°30'0 0.0
2017-Sep-25 02:31N 48°23' W 004°30'0 0.0
2017-Sep-25 02:00N 48°23' W 004°30'0 0.0
2017-Sep-25 01:31N 48°23' W 004°30'0 0.0
2017-Sep-25 01:00N 48°23' W 004°30'0 0.0
2017-Sep-25 00:30N 48°23' W 004°30'0 0.0
2017-Sep-25 00:00N 48°23' W 004°30'0 0.0
2017-Sep-24 23:31N 48°23' W 004°30'0 0.0
2017-Sep-24 23:00N 48°23' W 004°30'0 0.0
2017-Sep-24 22:30N 48°23' W 004°30'0 0.0
2017-Sep-24 22:00N 48°23' W 004°30'0 0.0
2017-Sep-24 21:30N 48°23' W 004°30'0 0.0
2017-Sep-24 21:00N 48°23' W 004°30'0 0.0
2017-Sep-24 20:30N 48°23' W 004°30'0 0.0
2017-Sep-24 20:00N 48°23' W 004°30'0 0.0
2017-Sep-24 19:30N 48°23' W 004°30'0 0.0
2017-Sep-24 19:00N 48°23' W 004°30'0 0.0
2017-Sep-24 18:30N 48°23' W 004°30'0 0.0
2017-Sep-24 18:00N 48°23' W 004°30'0 0.0
2017-Sep-24 17:30N 48°23' W 004°30'0 0.0
2017-Sep-24 17:00N 48°23' W 004°30'0 0.0
2017-Sep-24 16:30N 48°23' W 004°30'0 0.0
2017-Sep-24 16:00N 48°23' W 004°30'0 0.0
2017-Sep-24 15:30N 48°23' W 004°30'0 0.0
2017-Sep-24 15:00N 48°23' W 004°30'0 0.0
2017-Sep-24 14:30N 48°23' W 004°30'0 0.0
2017-Sep-24 14:00N 48°23' W 004°30'0 0.0
2017-Sep-24 13:30N 48°23' W 004°30'0 0.0
2017-Sep-24 13:01N 48°23' W 004°30'0 0.0
2017-Sep-24 12:30N 48°23' W 004°30'0 0.0
2017-Sep-24 12:00N 48°23' W 004°30'0 0.0
2017-Sep-24 11:30N 48°23' W 004°30'0 0.0
2017-Sep-24 11:00N 48°23' W 004°30'0 0.0
2017-Sep-24 10:30N 48°23' W 004°30'0 0.0
2017-Sep-24 10:00N 48°23' W 004°30'0 0.0
2017-Sep-24 09:30N 48°23' W 004°30'0 0.0
2017-Sep-24 09:00N 48°23' W 004°30'0 0.0
2017-Sep-24 08:31N 48°23' W 004°30'0 0.0
2017-Sep-24 08:00N 48°23' W 004°30'0 0.0
2017-Sep-24 07:30N 48°23' W 004°30'0 0.0
2017-Sep-24 07:00N 48°23' W 004°30'0 0.0
2017-Sep-24 06:30N 48°23' W 004°30'0 0.0
2017-Sep-24 06:00N 48°23' W 004°30'0 0.0
2017-Sep-24 05:30N 48°23' W 004°30'0 0.0
2017-Sep-24 05:00N 48°23' W 004°30'0 0.0
2017-Sep-24 04:30N 48°23' W 004°30'0 0.0
2017-Sep-24 04:01N 48°23' W 004°30'0 0.0
2017-Sep-24 03:30N 48°23' W 004°30'0 0.0
2017-Sep-24 03:00N 48°23' W 004°30'0 0.0
2017-Sep-24 02:30N 48°23' W 004°30'0 0.0
2017-Sep-24 02:00N 48°23' W 004°30'0 0.0
2017-Sep-24 01:30N 48°23' W 004°30'0 0.0
2017-Sep-24 01:00N 48°23' W 004°30'0 0.0
2017-Sep-24 00:30N 48°23' W 004°30'0 0.0
2017-Sep-24 00:01N 48°23' W 004°30'0 0.0
2017-Sep-23 23:30N 48°23' W 004°30'0 0.0
2017-Sep-23 23:00N 48°23' W 004°30'0 0.0
2017-Sep-23 22:30N 48°23' W 004°30'0 0.0
2017-Sep-23 22:00N 48°23' W 004°30'0 0.0
2017-Sep-23 21:30N 48°23' W 004°30'0 0.0
2017-Sep-23 21:01N 48°23' W 004°30'0 0.0
2017-Sep-23 20:30N 48°23' W 004°30'0 0.0
2017-Sep-23 20:00N 48°23' W 004°30'0 0.0
2017-Sep-22 02:00N 48°23' W 004°30'0 0.0
2017-Sep-22 01:30N 48°23' W 004°30'0 0.0
2017-Sep-22 01:00N 48°23' W 004°30'0 0.0
2017-Sep-22 00:30N 48°23' W 004°30'0 0.0
2017-Sep-22 00:00N 48°23' W 004°30'0 0.0
2017-Sep-21 23:30N 48°23' W 004°30'0 0.0
2017-Sep-21 23:00N 48°23' W 004°30'0 0.0
2017-Sep-21 22:30N 48°23' W 004°30'0 0.0
2017-Sep-21 22:00N 48°23' W 004°30'0 0.0
2017-Sep-21 21:30N 48°23' W 004°30'0 0.0
2017-Sep-21 21:00N 48°23' W 004°30'0 0.0
2017-Sep-21 20:30N 48°23' W 004°30'0 0.0
2017-Sep-21 20:00N 48°23' W 004°30'0 0.0
2017-Sep-21 19:30N 48°23' W 004°30'0 0.0
2017-Sep-21 19:00N 48°23' W 004°30'0 0.0
2017-Sep-21 18:30N 48°23' W 004°30'0 0.0
2017-Sep-21 18:00N 48°23' W 004°30'0 0.0
2017-Sep-21 17:30N 48°23' W 004°30'1 1.5
2017-Sep-21 17:00N 48°22' W 004°29'4 8.6
2017-Sep-21 16:30N 48°18' W 004°29'1 2.6
2017-Sep-21 16:00N 48°19' W 004°28'4 8.4
2017-Sep-21 15:31N 48°23' W 004°30'0 0.6
2017-Sep-21 15:01N 48°23' W 004°30'5 9.9
2017-Sep-21 14:30N 48°18' W 004°31'4 9.0
2017-Sep-21 14:01N 48°22' W 004°29'1 0.1
2017-Sep-21 07:26N 48°23' W 004°30'0 0.0
2017-Sep-21 07:00N 48°23' W 004°30'0 0.3
2017-Sep-21 06:30N 48°23' W 004°30'510.2
2017-Sep-21 06:00N 48°18' W 004°31'510.1
2017-Sep-21 05:31N 48°23' W 004°30'0 0.5
2017-Sep-21 05:00N 48°23' W 004°30'0 0.0
2017-Sep-21 04:31N 48°23' W 004°30'0 0.0
2017-Sep-21 04:00N 48°23' W 004°30'0 0.0
2017-Sep-21 03:30N 48°23' W 004°30'0 0.0
2017-Sep-21 03:00N 48°23' W 004°30'0 0.0
2017-Sep-21 02:30N 48°23' W 004°30'0 0.0
2017-Sep-21 02:00N 48°23' W 004°30'0 0.0
2017-Sep-21 01:30N 48°23' W 004°30'0 0.0
2017-Sep-21 01:00N 48°23' W 004°30'0 0.0
2017-Sep-21 00:30N 48°23' W 004°30'0 0.0
2017-Sep-21 00:00N 48°23' W 004°30'0 0.0
2017-Sep-20 23:31N 48°23' W 004°30'0 0.0
2017-Sep-20 23:00N 48°23' W 004°30'0 0.0
2017-Sep-20 22:30N 48°23' W 004°30'0 0.0
2017-Sep-20 22:00N 48°23' W 004°30'0 0.0
2017-Sep-20 21:30N 48°23' W 004°30'0 0.0
2017-Sep-20 21:00N 48°23' W 004°30'0 0.0
2017-Sep-20 20:30N 48°23' W 004°30'0 0.0
2017-Sep-20 20:00N 48°23' W 004°30'0 0.0
2017-Sep-20 19:30N 48°23' W 004°30'0 0.0
2017-Sep-20 19:00N 48°23' W 004°30'0 0.0
2017-Sep-20 18:30N 48°23' W 004°30'0 0.0
2017-Sep-20 18:00N 48°23' W 004°30'0 0.0
2017-Sep-20 17:30N 48°23' W 004°30'2 3.3
2017-Sep-20 17:00N 48°21' W 004°29'4 7.0
2017-Sep-20 16:30N 48°18' W 004°29'2 3.2
2017-Sep-20 16:01N 48°19' W 004°27'4 8.7
2017-Sep-20 15:30N 48°23' W 004°30'0 0.0
2017-Sep-20 15:00N 48°23' W 004°30'1 0.7
2017-Sep-20 14:00N 48°22' W 004°29'1 1.5
2017-Sep-20 13:30N 48°23' W 004°30'0 0.0
2017-Sep-20 13:00N 48°23' W 004°30'0 0.0
2017-Sep-20 12:30N 48°23' W 004°30'0 0.0
2017-Sep-20 12:00N 48°23' W 004°30'0 0.0
2017-Sep-20 11:30N 48°23' W 004°30'0 0.0
2017-Sep-20 11:00N 48°23' W 004°30'0 0.0
2017-Sep-20 10:30N 48°23' W 004°30'0 0.0
2017-Sep-20 10:00N 48°23' W 004°30'0 0.0
2017-Sep-20 09:30N 48°23' W 004°30'0 0.0
2017-Sep-20 09:00N 48°23' W 004°30'0 0.0
2017-Sep-20 08:30N 48°23' W 004°30'0 0.0
2017-Sep-20 08:00N 48°23' W 004°30'1 1.8
2017-Sep-20 07:31N 48°22' W 004°30'0 0.0
2017-Sep-20 07:00N 48°22' W 004°30'0 0.8
2017-Sep-20 06:30N 48°22' W 004°29'4 8.5
2017-Sep-20 06:00N 48°18' W 004°31'510.1
2017-Sep-20 05:30N 48°23' W 004°30'0 0.5
2017-Sep-20 05:00N 48°23' W 004°30'0 0.0
2017-Sep-20 04:30N 48°23' W 004°30'0 0.0
2017-Sep-20 04:01N 48°23' W 004°30'0 0.0
2017-Sep-20 03:30N 48°23' W 004°30'0 0.0
2017-Sep-20 03:00N 48°23' W 004°30'0 0.0
2017-Sep-20 02:30N 48°23' W 004°30'0 0.0
2017-Sep-20 02:00N 48°23' W 004°30'0 0.0
2017-Sep-20 01:30N 48°23' W 004°30'0 0.0
2017-Sep-20 01:01N 48°23' W 004°30'0 0.0
2017-Sep-20 00:30N 48°23' W 004°30'0 0.0
2017-Sep-20 00:00N 48°23' W 004°30'0 0.0
2017-Sep-19 23:30N 48°23' W 004°30'0 0.0
2017-Sep-19 23:00N 48°23' W 004°30'0 0.0
2017-Sep-19 22:30N 48°23' W 004°30'0 0.0
2017-Sep-19 22:00N 48°23' W 004°30'0 0.0
2017-Sep-19 21:30N 48°23' W 004°30'0 0.0
2017-Sep-19 21:01N 48°23' W 004°30'0 0.0
2017-Sep-19 20:30N 48°23' W 004°30'0 0.0
2017-Sep-19 20:00N 48°23' W 004°30'0 0.0
2017-Sep-19 19:30N 48°23' W 004°30'0 0.0
2017-Sep-19 19:00N 48°23' W 004°30'0 0.0
2017-Sep-19 18:30N 48°23' W 004°30'0 0.0
2017-Sep-19 18:01N 48°23' W 004°30'0 0.0
2017-Sep-19 17:30N 48°23' W 004°30'3 5.8
2017-Sep-19 17:01N 48°20' W 004°29'4 8.2
2017-Sep-19 16:30N 48°17' W 004°25'4 7.9
2017-Sep-19 16:01N 48°21' W 004°28'3 5.3
2017-Sep-19 15:31N 48°23' W 004°30'0 0.1
2017-Sep-19 15:00N 48°23' W 004°30'510.5
2017-Sep-19 14:30N 48°18' W 004°31'5 9.6
2017-Sep-19 14:01N 48°23' W 004°30'1 1.0
2017-Sep-19 13:30N 48°23' W 004°30'0 0.0
2017-Sep-19 13:00N 48°23' W 004°30'0 0.0
2017-Sep-19 12:30N 48°23' W 004°30'0 0.0
2017-Sep-19 12:00N 48°23' W 004°30'0 0.0
2017-Sep-19 11:30N 48°23' W 004°30'0 0.0
2017-Sep-19 11:00N 48°23' W 004°30'0 0.0
2017-Sep-19 10:30N 48°23' W 004°30'0 0.0
2017-Sep-19 10:01N 48°23' W 004°30'0 0.0
2017-Sep-19 09:30N 48°23' W 004°30'0 0.0
2017-Sep-19 09:00N 48°23' W 004°30'0 0.8
2017-Sep-19 08:31N 48°23' W 004°30'1 1.7
2017-Sep-19 08:01N 48°22' W 004°31'0 0.0
2017-Sep-19 07:31N 48°22' W 004°31'0 0.0
2017-Sep-19 07:01N 48°22' W 004°31'1 1.9
2017-Sep-19 06:31N 48°22' W 004°29'4 8.7
2017-Sep-19 06:01N 48°18' W 004°31'510.0
2017-Sep-19 05:30N 48°23' W 004°30'0 0.6
2017-Sep-19 05:00N 48°23' W 004°30'0 0.0
2017-Sep-19 04:31N 48°23' W 004°30'0 0.0
2017-Sep-19 04:00N 48°23' W 004°30'0 0.0
2017-Sep-19 03:30N 48°23' W 004°30'0 0.0
2017-Sep-19 03:01N 48°23' W 004°30'0 0.0
2017-Sep-19 02:31N 48°23' W 004°30'0 0.0
2017-Sep-19 02:01N 48°23' W 004°30'0 0.0
2017-Sep-19 01:31N 48°23' W 004°30'0 0.0
2017-Sep-19 01:00N 48°23' W 004°30'0 0.0
2017-Sep-19 00:31N 48°23' W 004°30'0 0.0
2017-Sep-19 00:01N 48°23' W 004°30'0 0.0
2017-Sep-18 23:31N 48°23' W 004°30'0 0.0
2017-Sep-18 23:00N 48°23' W 004°30'0 0.0
2017-Sep-18 22:30N 48°23' W 004°30'0 0.0
2017-Sep-18 22:01N 48°23' W 004°30'0 0.0
2017-Sep-18 21:30N 48°23' W 004°30'0 0.0
2017-Sep-18 21:01N 48°23' W 004°30'0 0.0
2017-Sep-18 20:31N 48°23' W 004°30'0 0.0
2017-Sep-18 20:01N 48°23' W 004°30'0 0.0
2017-Sep-18 19:30N 48°23' W 004°30'0 0.0
2017-Sep-18 19:00N 48°23' W 004°30'0 0.0
2017-Sep-18 18:31N 48°23' W 004°30'0 0.0
2017-Sep-18 18:01N 48°23' W 004°30'0 0.0
2017-Sep-18 17:31N 48°23' W 004°30'0 0.5
2017-Sep-18 17:01N 48°23' W 004°30'5 9.9
2017-Sep-18 16:30N 48°18' W 004°30'2 4.0
2017-Sep-18 16:01N 48°19' W 004°27'4 8.7
2017-Sep-18 15:30N 48°23' W 004°30'0 0.4
2017-Sep-18 15:00N 48°23' W 004°30'510.1
2017-Sep-18 14:30N 48°18' W 004°31'5 9.1
2017-Sep-18 14:01N 48°22' W 004°29'1 1.5
2017-Sep-18 13:31N 48°23' W 004°30'0 0.0
2017-Sep-18 13:00N 48°23' W 004°30'0 0.0
2017-Sep-18 12:31N 48°23' W 004°30'0 0.0
2017-Sep-18 12:00N 48°23' W 004°30'0 0.0
2017-Sep-18 11:30N 48°23' W 004°30'0 0.0
2017-Sep-18 11:00N 48°23' W 004°30'0 0.0
2017-Sep-18 10:31N 48°23' W 004°30'0 0.0
2017-Sep-18 10:01N 48°23' W 004°30'0 0.0
2017-Sep-18 09:31N 48°23' W 004°30'0 0.0
2017-Sep-18 09:01N 48°23' W 004°30'0 0.0
2017-Sep-18 08:30N 48°23' W 004°30'0 0.0
2017-Sep-18 08:01N 48°23' W 004°30'0 0.0
2017-Sep-18 07:31N 48°23' W 004°30'0 0.0
2017-Sep-18 07:00N 48°23' W 004°30'0 0.0
2017-Sep-18 06:30N 48°23' W 004°30'510.6
2017-Sep-18 06:00N 48°18' W 004°31'510.1
2017-Sep-18 05:31N 48°23' W 004°30'0 0.5
2017-Sep-18 05:00N 48°23' W 004°30'0 0.0
2017-Sep-18 04:30N 48°23' W 004°30'0 0.0
2017-Sep-18 04:00N 48°23' W 004°30'0 0.0
2017-Sep-18 03:31N 48°23' W 004°30'0 0.0
2017-Sep-18 03:01N 48°23' W 004°30'0 0.0
2017-Sep-18 02:31N 48°23' W 004°30'0 0.0
2017-Sep-18 02:00N 48°23' W 004°30'0 0.0
2017-Sep-18 01:31N 48°23' W 004°30'0 0.0
2017-Sep-18 01:01N 48°23' W 004°30'0 0.0
2017-Sep-18 00:31N 48°23' W 004°30'0 0.0
2017-Sep-18 00:01N 48°23' W 004°30'0 0.0
2017-Sep-17 23:31N 48°23' W 004°30'0 0.0
2017-Sep-17 23:00N 48°23' W 004°30'0 0.0
2017-Sep-17 22:30N 48°23' W 004°30'0 0.0
2017-Sep-17 22:01N 48°23' W 004°30'0 0.0
2017-Sep-17 21:30N 48°23' W 004°30'0 0.0
2017-Sep-17 21:00N 48°23' W 004°30'0 0.0
2017-Sep-17 20:31N 48°23' W 004°30'0 0.0
2017-Sep-17 20:00N 48°23' W 004°30'0 0.0
2017-Sep-17 19:30N 48°23' W 004°30'0 0.0
2017-Sep-17 19:00N 48°23' W 004°30'0 0.0
2017-Sep-17 18:30N 48°23' W 004°30'0 0.0
2017-Sep-17 18:00N 48°23' W 004°30'0 0.0
2017-Sep-17 17:30N 48°23' W 004°30'0 0.0
2017-Sep-17 17:00N 48°23' W 004°30'0 0.0
2017-Sep-17 16:31N 48°23' W 004°30'0 0.0
2017-Sep-17 16:00N 48°23' W 004°30'0 0.0
2017-Sep-17 15:30N 48°23' W 004°30'0 0.0
2017-Sep-17 15:01N 48°23' W 004°30'0 0.0
2017-Sep-17 14:30N 48°23' W 004°30'0 0.0
2017-Sep-17 14:00N 48°23' W 004°30'0 0.0
2017-Sep-17 13:30N 48°23' W 004°30'0 0.0
2017-Sep-17 13:01N 48°23' W 004°30'0 0.0
2017-Sep-17 12:30N 48°23' W 004°30'0 0.0
2017-Sep-17 12:00N 48°23' W 004°30'0 0.0
2017-Sep-17 11:30N 48°23' W 004°30'0 0.0
2017-Sep-17 11:00N 48°23' W 004°30'0 0.0
2017-Sep-17 10:30N 48°23' W 004°30'0 0.0
2017-Sep-17 10:00N 48°23' W 004°30'0 0.0
2017-Sep-17 09:30N 48°23' W 004°30'0 0.0
2017-Sep-17 09:01N 48°23' W 004°30'0 0.0
2017-Sep-17 08:31N 48°23' W 004°30'0 0.0
2017-Sep-17 08:01N 48°23' W 004°30'0 0.5
2017-Sep-17 07:31N 48°23' W 004°30'5 9.7
2017-Sep-17 07:01N 48°18' W 004°29'3 6.2
2017-Sep-17 06:31N 48°17' W 004°25'1 2.8
2017-Sep-17 06:00N 48°18' W 004°26'3 5.9
2017-Sep-17 05:31N 48°20' W 004°29'3 5.3
2017-Sep-17 05:00N 48°23' W 004°30'0 0.0
2017-Sep-17 04:30N 48°23' W 004°30'0 0.0
2017-Sep-17 04:00N 48°23' W 004°30'0 0.0
2017-Sep-17 03:30N 48°23' W 004°30'0 0.0
2017-Sep-17 03:01N 48°23' W 004°30'0 0.0
2017-Sep-17 02:30N 48°23' W 004°30'0 0.0
2017-Sep-17 02:01N 48°23' W 004°30'0 0.0
2017-Sep-17 01:30N 48°23' W 004°30'0 0.0
2017-Sep-17 01:00N 48°23' W 004°30'0 0.0
2017-Sep-17 00:30N 48°23' W 004°30'0 0.0
2017-Sep-17 00:00N 48°23' W 004°30'0 0.0
2017-Sep-16 23:31N 48°23' W 004°30'0 0.0
2017-Sep-16 23:01N 48°23' W 004°30'0 0.0
2017-Sep-16 22:31N 48°23' W 004°30'0 0.0
2017-Sep-16 22:00N 48°23' W 004°30'0 0.0
2017-Sep-16 21:30N 48°23' W 004°30'0 0.0
2017-Sep-16 21:00N 48°23' W 004°30'0 0.0
2017-Sep-16 20:30N 48°23' W 004°30'0 0.0
2017-Sep-16 20:00N 48°23' W 004°30'0 0.0
2017-Sep-16 19:30N 48°23' W 004°30'0 0.0
2017-Sep-16 19:00N 48°23' W 004°30'0 0.0
2017-Sep-16 18:30N 48°23' W 004°30'0 0.0
2017-Sep-16 18:00N 48°23' W 004°30'0 0.0
2017-Sep-16 17:31N 48°23' W 004°30'0 0.0
2017-Sep-16 17:00N 48°23' W 004°30'0 0.0
2017-Sep-16 16:30N 48°23' W 004°30'0 0.0
2017-Sep-16 16:00N 48°23' W 004°30'0 0.0
2017-Sep-16 15:30N 48°23' W 004°30'0 0.0
2017-Sep-16 15:01N 48°23' W 004°30'0 0.0
2017-Sep-16 14:31N 48°23' W 004°30'0 0.0
2017-Sep-16 14:00N 48°23' W 004°30'0 0.0
2017-Sep-16 13:30N 48°23' W 004°30'0 0.0
2017-Sep-16 13:00N 48°23' W 004°30'0 0.0
2017-Sep-16 12:30N 48°23' W 004°30'0 0.0
2017-Sep-16 12:00N 48°23' W 004°30'0 0.0
2017-Sep-16 11:30N 48°23' W 004°30'0 0.0
2017-Sep-16 11:00N 48°23' W 004°30'0 0.0
2017-Sep-16 10:30N 48°23' W 004°30'0 0.0
2017-Sep-16 10:00N 48°23' W 004°30'0 0.0
2017-Sep-16 09:31N 48°23' W 004°30'0 0.0
2017-Sep-16 09:01N 48°23' W 004°30'0 0.0
2017-Sep-16 08:30N 48°23' W 004°30'0 0.0
2017-Sep-16 08:00N 48°23' W 004°30'0 0.8
2017-Sep-16 07:30N 48°23' W 004°30'5 9.4
2017-Sep-16 07:01N 48°18' W 004°29'3 6.2
2017-Sep-16 06:30N 48°17' W 004°25'2 3.1
2017-Sep-16 06:01N 48°18' W 004°27'3 6.6
2017-Sep-16 05:30N 48°21' W 004°29'2 4.3
2017-Sep-16 05:01N 48°23' W 004°30'0 0.0
2017-Sep-16 04:31N 48°23' W 004°30'0 0.0
2017-Sep-16 04:00N 48°23' W 004°30'0 0.0
2017-Sep-16 03:30N 48°23' W 004°30'0 0.0
2017-Sep-16 03:00N 48°23' W 004°30'0 0.0
2017-Sep-16 02:30N 48°23' W 004°30'0 0.0
2017-Sep-16 02:01N 48°23' W 004°30'  

Dump ship's entire track history